createdAt,value
2019-03-16T00:00:45.520Z,11.17
2019-03-16T00:06:40.545Z,15
2019-03-16T00:12:35.575Z,21.88
2019-03-16T00:18:30.555Z,11.37
2019-03-16T00:24:25.537Z,17.39
2019-03-16T00:30:20.554Z,16.12
2019-03-16T00:36:15.556Z,13
2019-03-16T00:42:10.564Z,15.39
2019-03-16T00:48:05.574Z,14.09
2019-03-16T00:54:00.587Z,12.54
2019-03-16T00:59:55.696Z,13.39
2019-03-16T01:05:50.594Z,13.56
2019-03-16T01:11:45.592Z,17.65
2019-03-16T01:17:40.604Z,12.28
2019-03-16T01:23:35.622Z,10
2019-03-16T01:29:30.636Z,14.78
2019-03-16T01:35:25.643Z,12.89
2019-03-16T01:41:20.612Z,12.04
2019-03-16T01:47:15.654Z,14.56
2019-03-16T01:53:10.680Z,13.95
2019-03-16T01:59:05.651Z,10.79
2019-03-16T02:05:00.634Z,11.55
2019-03-16T02:10:55.681Z,11.87
2019-03-16T02:16:50.643Z,15.39
2019-03-16T02:22:45.645Z,15.05
2019-03-16T02:28:40.648Z,15.41
2019-03-16T02:34:35.698Z,11.82
2019-03-16T02:40:30.695Z,16.72
2019-03-16T02:46:25.670Z,15.2
2019-03-16T02:52:20.696Z,13.84
2019-03-16T02:58:15.697Z,11.34
2019-03-16T03:04:10.669Z,12.31
2019-03-16T03:10:05.682Z,14.18
2019-03-16T03:16:00.773Z,15.82
2019-03-16T03:21:55.723Z,11.57
2019-03-16T03:27:50.698Z,13.57
2019-03-16T03:33:59.573Z,13.79
2019-03-16T03:39:40.705Z,14.31
2019-03-16T03:45:35.708Z,15.46
2019-03-16T03:51:30.754Z,15.04
2019-03-16T03:57:25.802Z,14.25
2019-03-16T04:03:20.785Z,17.21
2019-03-16T04:09:15.747Z,21.87
2019-03-16T04:15:10.766Z,21.25
2019-03-16T04:21:05.755Z,19.24
2019-03-16T04:27:14.859Z,20.98
2019-03-16T04:32:55.767Z,17.81
2019-03-16T04:38:50.776Z,20.91
2019-03-16T04:44:45.771Z,13.31
2019-03-16T04:50:40.798Z,18.39
2019-03-16T04:56:35.799Z,19.49
2019-03-16T05:02:30.801Z,19.94
2019-03-16T05:08:25.806Z,15.55
2019-03-16T05:14:20.833Z,17.52
2019-03-16T05:20:15.805Z,20.29
2019-03-16T05:26:10.798Z,15.86
2019-03-16T05:32:05.815Z,15.23
2019-03-16T05:38:00.808Z,20.77
2019-03-16T05:43:55.832Z,21.48
2019-03-16T05:49:50.839Z,14.42
2019-03-16T05:55:45.865Z,17.13
2019-03-16T06:01:40.866Z,18.83
2019-03-16T06:07:35.856Z,16.28
2019-03-16T06:13:30.870Z,14.38
2019-03-16T06:19:25.879Z,15.26
2019-03-16T06:25:20.858Z,17.35
2019-03-16T06:31:15.874Z,17.82
2019-03-16T06:37:10.902Z,11.88
2019-03-16T06:43:05.928Z,12.81
2019-03-16T06:49:00.898Z,19.12
2019-03-16T06:54:55.887Z,19.84
2019-03-16T07:00:50.879Z,16.06
2019-03-16T07:06:45.914Z,15.82
2019-03-16T07:12:40.918Z,16.59
2019-03-16T07:18:35.941Z,23.72
2019-03-16T07:24:30.895Z,23.61
2019-03-16T07:30:25.904Z,24.9
2019-03-16T07:36:20.967Z,18.09
2019-03-16T07:42:15.918Z,19.72
2019-03-16T07:48:10.931Z,19.21
2019-03-16T07:54:05.976Z,15.72
2019-03-16T08:00:00.948Z,19.5
2019-03-16T08:05:55.938Z,17.67
2019-03-16T08:11:51.001Z,23.16
2019-03-16T08:17:45.970Z,16.61
2019-03-16T08:23:40.958Z,19.2
2019-03-16T08:29:35.978Z,20.74
2019-03-16T08:35:30.950Z,21.13
2019-03-16T08:41:25.978Z,20.42
2019-03-16T08:47:21.050Z,15.75
2019-03-16T08:53:16.025Z,14.29
2019-03-16T08:59:10.994Z,13.71
2019-03-16T09:05:06.010Z,18.82
2019-03-16T09:11:01.016Z,18.22
2019-03-16T09:16:56.015Z,15.96
2019-03-16T09:22:51.051Z,14.02
2019-03-16T09:28:46.027Z,13.45
2019-03-16T09:34:41.086Z,15.88
2019-03-16T09:40:36.103Z,19.56
2019-03-16T09:46:31.071Z,14.92
2019-03-16T09:52:26.053Z,14.61
2019-03-16T09:58:30.604Z,13.59
2019-03-16T10:04:16.078Z,12.68
2019-03-16T10:10:11.080Z,12.5
2019-03-16T10:16:06.069Z,23.93
2019-03-16T10:22:01.155Z,16.1
2019-03-16T10:27:56.139Z,18
2019-03-16T10:33:51.239Z,12.37
2019-03-16T10:39:46.091Z,12.98
2019-03-16T10:45:41.104Z,16.44
2019-03-16T10:51:36.091Z,16.02
2019-03-16T10:57:31.136Z,13.21
2019-03-16T11:03:26.101Z,14.9
2019-03-16T11:09:21.144Z,13.18
2019-03-16T11:15:16.143Z,17.27
2019-03-16T11:21:11.131Z,15.27
2019-03-16T11:27:06.137Z,15.97
2019-03-16T11:33:01.192Z,11.1
2019-03-16T11:38:56.170Z,9.78
2019-03-16T11:44:51.178Z,9.4
2019-03-16T11:50:48.769Z,11.62
2019-03-16T11:56:41.170Z,16.1
2019-03-16T12:02:36.177Z,14.18
2019-03-16T12:08:31.196Z,13.96
2019-03-16T12:14:26.181Z,11.26
2019-03-16T12:20:21.195Z,9.27
2019-03-16T12:26:16.207Z,11.53
2019-03-16T12:32:11.188Z,12.63
2019-03-16T12:38:06.190Z,10.23
2019-03-16T12:44:01.205Z,10.56
2019-03-16T12:49:56.211Z,9.45
2019-03-16T12:55:51.213Z,10.6
2019-03-16T13:01:46.229Z,7.43
2019-03-16T13:07:41.238Z,8.59
2019-03-16T13:13:36.256Z,8.87
2019-03-16T13:19:31.262Z,10.41
2019-03-16T13:25:26.234Z,9.19
2019-03-16T13:31:21.259Z,6.37
2019-03-16T13:37:16.280Z,11.4
2019-03-16T13:43:11.326Z,7.46
2019-03-16T13:49:06.265Z,8.67
2019-03-16T13:55:01.283Z,7.18
2019-03-16T14:00:56.307Z,6.92
2019-03-16T14:06:51.290Z,5.77
2019-03-16T14:12:46.319Z,8.17
2019-03-16T14:18:41.295Z,5.54
2019-03-16T14:24:36.298Z,6.24
2019-03-16T14:30:40.761Z,6.02
2019-03-16T14:36:26.313Z,10.17
2019-03-16T14:42:21.333Z,5.53
2019-03-16T14:48:16.353Z,7.23
2019-03-16T14:54:11.388Z,8.61
2019-03-16T15:00:06.341Z,6.06
2019-03-16T15:06:01.360Z,6.01
2019-03-16T15:11:56.348Z,5.57
2019-03-16T15:17:51.383Z,6.9
2019-03-16T15:23:46.373Z,6.05
2019-03-16T15:29:41.362Z,5.13
2019-03-16T15:35:36.417Z,6.87
2019-03-16T15:41:31.411Z,6.8
2019-03-16T15:47:26.425Z,9.5
2019-03-16T15:53:21.405Z,5.48
2019-03-16T15:59:16.479Z,12.35
2019-03-16T16:05:11.436Z,9.91
2019-03-16T16:11:06.411Z,9.58
2019-03-16T16:17:01.433Z,8.38
2019-03-16T16:22:56.445Z,12.24
2019-03-16T16:28:51.420Z,9.31
2019-03-16T16:34:46.437Z,6.69
2019-03-16T16:40:41.441Z,8.58
2019-03-16T16:46:36.451Z,12.22
2019-03-16T16:52:31.473Z,13.04
2019-03-16T16:58:26.451Z,22.04
2019-03-16T17:04:21.491Z,12.4
2019-03-16T17:10:16.455Z,11.63
2019-03-16T17:16:11.471Z,11.7
2019-03-16T17:22:06.508Z,13.9
2019-03-16T17:28:01.507Z,12.54
2019-03-16T17:33:56.517Z,12.49
2019-03-16T17:39:51.527Z,12.38
2019-03-16T17:45:46.520Z,12.37
2019-03-16T17:51:41.493Z,12.35
2019-03-16T17:57:36.522Z,17.52
2019-03-16T18:03:31.539Z,15.64
2019-03-16T18:09:26.530Z,19.02
2019-03-16T18:15:21.534Z,17.49
2019-03-16T18:21:16.643Z,16.05
2019-03-16T18:27:11.544Z,17.67
2019-03-16T18:33:06.599Z,18.93
2019-03-16T18:39:01.590Z,18.21
2019-03-16T18:44:56.592Z,16.17
2019-03-16T18:50:51.578Z,20.43
2019-03-16T18:56:46.588Z,17.96
2019-03-16T19:02:41.628Z,19.56
2019-03-16T19:08:36.584Z,19.69
2019-03-16T19:14:31.639Z,20.36
2019-03-16T19:20:26.616Z,15.79
2019-03-16T19:26:21.595Z,17.04
2019-03-16T19:32:17.252Z,22.49
2019-03-16T19:38:13.281Z,19.13
2019-03-16T19:44:06.648Z,20.04
2019-03-16T19:50:01.649Z,22.09
2019-03-16T19:55:56.631Z,22.46
2019-03-16T20:01:51.637Z,15.61
2019-03-16T20:07:46.670Z,26.47
2019-03-16T20:13:41.632Z,16.3
2019-03-16T20:19:36.647Z,17.31
2019-03-16T20:25:31.648Z,21.58
2019-03-16T20:31:26.640Z,14.77
2019-03-16T20:37:21.754Z,23.37
2019-03-16T20:43:16.675Z,20.11
2019-03-16T20:49:11.715Z,15.16
2019-03-16T20:55:06.688Z,21.49
2019-03-16T21:01:01.701Z,22.64
2019-03-16T21:06:56.689Z,21.39
2019-03-16T21:12:51.691Z,20.12
2019-03-16T21:18:46.727Z,20.36
2019-03-16T21:24:41.713Z,15.35
2019-03-16T21:30:36.727Z,16.65
2019-03-16T21:36:40.833Z,18.43
2019-03-16T21:42:26.749Z,18.29
2019-03-16T21:48:21.727Z,22.94
2019-03-16T21:54:16.739Z,21.69
2019-03-16T22:00:11.722Z,23.84
2019-03-16T22:06:06.753Z,17.85
2019-03-16T22:12:01.740Z,19.2
2019-03-16T22:17:56.763Z,17.11
2019-03-16T22:23:51.750Z,14.64
2019-03-16T22:29:46.773Z,18.49
2019-03-16T22:35:41.791Z,15.23
2019-03-16T22:41:36.788Z,18.72
2019-03-16T22:47:31.774Z,11
2019-03-16T22:53:26.789Z,18.1
2019-03-16T22:59:21.837Z,14.8
2019-03-16T23:05:16.808Z,14.68
2019-03-16T23:11:11.875Z,11.37
2019-03-16T23:17:06.814Z,16.99
2019-03-16T23:23:01.850Z,13.56
2019-03-16T23:28:56.817Z,17.61
2019-03-16T23:34:51.853Z,12.65
2019-03-16T23:40:46.845Z,12.53
2019-03-16T23:46:41.834Z,13.92
2019-03-16T23:52:37.215Z,14.75
2019-03-16T23:58:31.875Z,12.39
